Abegondo, Spain
Current Conditions -  °F | °C
As of 1:30 PM on Monday 20 Oct 2014 (Local Time) from LECO Reporting Station
Clear Clear  
Wind Chill: 20°   Ceiling: Unl
Heat Index: 20°   Visibility: 6mi
Dew Point: 18°   Wind: 3mph
Humidity: 88%   Direction: 360°N
Pressure: 30.18"   Gusts: NA
Location:  43.22°N, 8.28°W
Report Text: LECO 201130Z 36003KT 330V030 CAVOK 20/18 Q1022 NOSIG
Loading
Personal Weather Stations






























Interactive Weather Map
Tropical Storm Tracking
New forecast layout! Learn more

10-Day Weather Forecast

Advertisements
Track Severe Weather on mobile